sensor_id;sensor_type;location;lat;lon;timestamp;P1;durP1;ratioP1;P2;durP2;ratioP2
61473;SDS011;53694;49.784;30.150;2023-08-01T00:00:03;6.19;;;2.06;;
61473;SDS011;53694;49.784;30.150;2023-08-01T00:01:06;2.97;;;1.94;;
61473;SDS011;53694;49.784;30.150;2023-08-01T00:02:07;4.86;;;2.10;;
61473;SDS011;53694;49.784;30.150;2023-08-01T00:03:09;4.95;;;2.10;;
61473;SDS011;53694;49.784;30.150;2023-08-01T00:04:10;6.57;;;1.86;;
61473;SDS011;53694;49.784;30.150;2023-08-01T00:05:12;4.77;;;1.91;;
61473;SDS011;53694;49.784;30.150;2023-08-01T00:06:14;5.43;;;2.04;;
61473;SDS011;53694;49.784;30.150;2023-08-01T00:07:15;5.80;;;2.02;;
61473;SDS011;53694;49.784;30.150;2023-08-01T00:08:17;5.71;;;2.16;;
61473;SDS011;53694;49.784;30.150;2023-08-01T00:09:18;3.44;;;2.14;;
61473;SDS011;53694;49.784;30.150;2023-08-01T00:10:20;3.72;;;2.24;;
61473;SDS011;53694;49.784;30.150;2023-08-01T00:11:21;4.04;;;2.11;;
61473;SDS011;53694;49.784;30.150;2023-08-01T00:12:23;4.34;;;2.57;;
61473;SDS011;53694;49.784;30.150;2023-08-01T00:13:25;3.21;;;2.00;;
61473;SDS011;53694;49.784;30.150;2023-08-01T00:14:27;5.05;;;1.98;;
61473;SDS011;53694;49.784;30.150;2023-08-01T00:15:28;5.46;;;2.13;;
61473;SDS011;53694;49.784;30.150;2023-08-01T00:16:30;4.93;;;2.04;;
61473;SDS011;53694;49.784;30.150;2023-08-01T00:17:32;4.09;;;1.99;;
61473;SDS011;53694;49.784;30.150;2023-08-01T00:18:33;4.17;;;1.96;;
61473;SDS011;53694;49.784;30.150;2023-08-01T00:19:35;6.07;;;2.19;;
61473;SDS011;53694;49.784;30.150;2023-08-01T00:20:36;6.90;;;2.44;;
61473;SDS011;53694;49.784;30.150;2023-08-01T00:21:38;5.39;;;1.90;;
61473;SDS011;53694;49.784;30.150;2023-08-01T00:22:39;4.61;;;2.41;;
61473;SDS011;53694;49.784;30.150;2023-08-01T00:23:41;3.49;;;1.93;;
61473;SDS011;53694;49.784;30.150;2023-08-01T00:24:42;5.79;;;2.00;;
61473;SDS011;53694;49.784;30.150;2023-08-01T00:25:44;6.08;;;2.16;;
61473;SDS011;53694;49.784;30.150;2023-08-01T00:26:45;5.94;;;2.11;;
61473;SDS011;53694;49.784;30.150;2023-08-01T00:27:47;4.79;;;2.21;;
61473;SDS011;53694;49.784;30.150;2023-08-01T00:28:48;5.24;;;2.13;;
61473;SDS011;53694;49.784;30.150;2023-08-01T00:29:50;5.48;;;2.31;;
61473;SDS011;53694;49.784;30.150;2023-08-01T00:31:01;5.10;;;2.04;;
61473;SDS011;53694;49.784;30.150;2023-08-01T00:32:04;7.67;;;2.23;;
61473;SDS011;53694;49.784;30.150;2023-08-01T00:33:07;3.78;;;2.25;;
61473;SDS011;53694;49.784;30.150;2023-08-01T00:34:08;4.74;;;2.15;;
61473;SDS011;53694;49.784;30.150;2023-08-01T00:35:10;6.01;;;2.11;;
61473;SDS011;53694;49.784;30.150;2023-08-01T00:36:11;5.14;;;2.11;;
61473;SDS011;53694;49.784;30.150;2023-08-01T00:37:13;3.59;;;1.94;;
61473;SDS011;53694;49.784;30.150;2023-08-01T00:38:14;4.95;;;2.00;;
61473;SDS011;53694;49.784;30.150;2023-08-01T00:39:15;4.62;;;1.99;;
61473;SDS011;53694;49.784;30.150;2023-08-01T00:40:17;3.34;;;2.18;;
61473;SDS011;53694;49.784;30.150;2023-08-01T00:41:19;3.67;;;2.09;;
61473;SDS011;53694;49.784;30.150;2023-08-01T00:42:20;4.10;;;2.06;;
61473;SDS011;53694;49.784;30.150;2023-08-01T00:43:22;4.11;;;2.26;;
61473;SDS011;53694;49.784;30.150;2023-08-01T00:44:23;4.66;;;2.17;;
61473;SDS011;53694;49.784;30.150;2023-08-01T00:45:29;4.05;;;2.11;;
61473;SDS011;53694;49.784;30.150;2023-08-01T00:46:29;3.34;;;1.88;;
61473;SDS011;53694;49.784;30.150;2023-08-01T00:47:30;4.56;;;1.93;;
61473;SDS011;53694;49.784;30.150;2023-08-01T00:48:32;5.79;;;1.87;;
61473;SDS011;53694;49.784;30.150;2023-08-01T00:49:33;4.39;;;2.42;;
61473;SDS011;53694;49.784;30.150;2023-08-01T00:50:35;3.45;;;2.01;;
61473;SDS011;53694;49.784;30.150;2023-08-01T00:51:37;3.31;;;1.98;;
61473;SDS011;53694;49.784;30.150;2023-08-01T00:52:39;2.99;;;1.89;;
61473;SDS011;53694;49.784;30.150;2023-08-01T00:53:41;4.04;;;2.00;;
61473;SDS011;53694;49.784;30.150;2023-08-01T00:54:42;4.58;;;1.97;;
61473;SDS011;53694;49.784;30.150;2023-08-01T00:55:44;3.56;;;2.04;;
61473;SDS011;53694;49.784;30.150;2023-08-01T00:56:46;3.89;;;1.99;;
61473;SDS011;53694;49.784;30.150;2023-08-01T00:57:48;3.85;;;1.97;;
61473;SDS011;53694;49.784;30.150;2023-08-01T00:58:50;4.26;;;1.88;;
61473;SDS011;53694;49.784;30.150;2023-08-01T00:59:51;6.20;;;2.16;;
61473;SDS011;53694;49.784;30.150;2023-08-01T01:00:53;3.43;;;2.10;;
61473;SDS011;53694;49.784;30.150;2023-08-01T01:01:54;6.22;;;2.21;;
61473;SDS011;53694;49.784;30.150;2023-08-01T01:02:56;7.64;;;2.33;;
61473;SDS011;53694;49.784;30.150;2023-08-01T01:03:58;8.20;;;2.11;;
61473;SDS011;53694;49.784;30.150;2023-08-01T01:05:00;3.96;;;2.03;;
61473;SDS011;53694;49.784;30.150;2023-08-01T01:06:09;6.11;;;2.27;;
61473;SDS011;53694;49.784;30.150;2023-08-01T01:07:17;4.34;;;2.02;;
61473;SDS011;53694;49.784;30.150;2023-08-01T01:08:20;4.68;;;1.76;;
61473;SDS011;53694;49.784;30.150;2023-08-01T01:09:22;4.61;;;1.89;;
61473;SDS011;53694;49.784;30.150;2023-08-01T01:10:24;6.39;;;2.15;;
61473;SDS011;53694;49.784;30.150;2023-08-01T01:11:25;5.02;;;2.09;;
61473;SDS011;53694;49.784;30.150;2023-08-01T01:12:27;4.47;;;1.99;;
61473;SDS011;53694;49.784;30.150;2023-08-01T01:13:28;3.89;;;2.10;;
61473;SDS011;53694;49.784;30.150;2023-08-01T01:14:30;5.64;;;2.26;;
61473;SDS011;53694;49.784;30.150;2023-08-01T01:15:31;3.41;;;2.05;;
61473;SDS011;53694;49.784;30.150;2023-08-01T01:16:33;3.88;;;2.11;;
61473;SDS011;53694;49.784;30.150;2023-08-01T01:17:34;3.93;;;2.22;;
61473;SDS011;53694;49.784;30.150;2023-08-01T01:18:36;5.69;;;3.06;;
61473;SDS011;53694;49.784;30.150;2023-08-01T01:19:38;4.09;;;2.11;;
61473;SDS011;53694;49.784;30.150;2023-08-01T01:20:39;4.86;;;2.15;;
61473;SDS011;53694;49.784;30.150;2023-08-01T01:21:41;4.44;;;2.22;;
61473;SDS011;53694;49.784;30.150;2023-08-01T01:22:44;5.48;;;2.27;;
61473;SDS011;53694;49.784;30.150;2023-08-01T01:23:45;8.26;;;2.10;;
61473;SDS011;53694;49.784;30.150;2023-08-01T01:24:48;4.57;;;2.37;;
61473;SDS011;53694;49.784;30.150;2023-08-01T01:25:52;6.84;;;2.06;;
61473;SDS011;53694;49.784;30.150;2023-08-01T01:26:55;5.94;;;2.18;;
61473;SDS011;53694;49.784;30.150;2023-08-01T01:27:58;4.11;;;2.30;;
61473;SDS011;53694;49.784;30.150;2023-08-01T01:29:02;3.44;;;2.11;;
61473;SDS011;53694;49.784;30.150;2023-08-01T01:30:06;4.01;;;2.08;;
61473;SDS011;53694;49.784;30.150;2023-08-01T01:31:08;3.35;;;1.90;;
61473;SDS011;53694;49.784;30.150;2023-08-01T01:32:10;4.01;;;2.00;;
61473;SDS011;53694;49.784;30.150;2023-08-01T01:33:12;4.41;;;2.24;;
61473;SDS011;53694;49.784;30.150;2023-08-01T01:34:15;6.85;;;2.36;;
61473;SDS011;53694;49.784;30.150;2023-08-01T01:35:16;6.79;;;2.51;;
61473;SDS011;53694;49.784;30.150;2023-08-01T01:36:19;4.51;;;2.35;;
61473;SDS011;53694;49.784;30.150;2023-08-01T01:37:20;3.94;;;2.43;;
61473;SDS011;53694;49.784;30.150;2023-08-01T01:38:22;9.79;;;2.52;;
61473;SDS011;53694;49.784;30.150;2023-08-01T01:39:23;5.18;;;2.44;;
61473;SDS011;53694;49.784;30.150;2023-08-01T01:40:25;4.81;;;2.46;;
61473;SDS011;53694;49.784;30.150;2023-08-01T01:41:26;4.49;;;2.32;;
61473;SDS011;53694;49.784;30.150;2023-08-01T01:42:28;4.76;;;2.30;;
61473;SDS011;53694;49.784;30.150;2023-08-01T01:43:30;5.05;;;2.09;;
61473;SDS011;53694;49.784;30.150;2023-08-01T01:44:32;5.07;;;2.49;;
61473;SDS011;53694;49.784;30.150;2023-08-01T01:45:33;5.19;;;2.24;;
61473;SDS011;53694;49.784;30.150;2023-08-01T01:46:35;3.61;;;2.17;;
61473;SDS011;53694;49.784;30.150;2023-08-01T01:47:36;4.79;;;2.21;;
61473;SDS011;53694;49.784;30.150;2023-08-01T01:48:38;4.44;;;2.04;;
61473;SDS011;53694;49.784;30.150;2023-08-01T01:49:39;4.29;;;2.07;;
61473;SDS011;53694;49.784;30.150;2023-08-01T01:50:41;5.82;;;2.70;;
61473;SDS011;53694;49.784;30.150;2023-08-01T01:51:42;3.99;;;2.38;;
61473;SDS011;53694;49.784;30.150;2023-08-01T01:52:44;3.91;;;2.33;;
61473;SDS011;53694;49.784;30.150;2023-08-01T01:53:46;8.97;;;2.88;;
61473;SDS011;53694;49.784;30.150;2023-08-01T01:54:47;6.41;;;2.59;;
61473;SDS011;53694;49.784;30.150;2023-08-01T01:55:49;5.10;;;2.57;;
61473;SDS011;53694;49.784;30.150;2023-08-01T01:56:50;6.01;;;2.62;;
61473;SDS011;53694;49.784;30.150;2023-08-01T01:57:52;6.49;;;2.32;;
61473;SDS011;53694;49.784;30.150;2023-08-01T01:58:53;7.60;;;2.58;;
61473;SDS011;53694;49.784;30.150;2023-08-01T01:59:55;4.16;;;2.18;;
61473;SDS011;53694;49.784;30.150;2023-08-01T02:00:56;6.27;;;2.52;;
61473;SDS011;53694;49.784;30.150;2023-08-01T02:01:58;3.44;;;2.14;;
61473;SDS011;53694;49.784;30.150;2023-08-01T02:02:59;4.59;;;2.18;;
61473;SDS011;53694;49.784;30.150;2023-08-01T02:04:01;4.24;;;1.95;;
61473;SDS011;53694;49.784;30.150;2023-08-01T02:05:02;3.89;;;2.18;;
61473;SDS011;53694;49.784;30.150;2023-08-01T02:06:04;5.15;;;2.33;;
61473;SDS011;53694;49.784;30.150;2023-08-01T02:07:06;4.49;;;2.23;;
61473;SDS011;53694;49.784;30.150;2023-08-01T02:08:08;4.34;;;2.44;;
61473;SDS011;53694;49.784;30.150;2023-08-01T02:09:09;7.87;;;3.52;;
61473;SDS011;53694;49.784;30.150;2023-08-01T02:10:11;4.66;;;2.57;;
61473;SDS011;53694;49.784;30.150;2023-08-01T02:11:12;4.51;;;2.51;;
61473;SDS011;53694;49.784;30.150;2023-08-01T02:12:14;5.19;;;2.31;;
61473;SDS011;53694;49.784;30.150;2023-08-01T02:13:15;3.86;;;2.29;;
61473;SDS011;53694;49.784;30.150;2023-08-01T02:14:17;4.79;;;2.42;;
61473;SDS011;53694;49.784;30.150;2023-08-01T02:15:18;4.79;;;2.31;;
61473;SDS011;53694;49.784;30.150;2023-08-01T02:16:20;4.20;;;2.26;;
61473;SDS011;53694;49.784;30.150;2023-08-01T02:17:22;4.93;;;2.57;;
61473;SDS011;53694;49.784;30.150;2023-08-01T02:18:23;5.04;;;2.33;;
61473;SDS011;53694;49.784;30.150;2023-08-01T02:19:25;6.04;;;2.49;;
61473;SDS011;53694;49.784;30.150;2023-08-01T02:20:26;4.06;;;2.27;;
61473;SDS011;53694;49.784;30.150;2023-08-01T02:21:28;4.78;;;2.32;;
61473;SDS011;53694;49.784;30.150;2023-08-01T02:22:30;7.42;;;2.69;;
61473;SDS011;53694;49.784;30.150;2023-08-01T02:23:31;4.93;;;2.52;;
61473;SDS011;53694;49.784;30.150;2023-08-01T02:24:33;4.73;;;2.61;;
61473;SDS011;53694;49.784;30.150;2023-08-01T02:25:38;5.74;;;2.50;;
61473;SDS011;53694;49.784;30.150;2023-08-01T02:26:40;6.99;;;2.87;;
61473;SDS011;53694;49.784;30.150;2023-08-01T02:27:42;7.19;;;2.99;;
61473;SDS011;53694;49.784;30.150;2023-08-01T02:28:43;4.99;;;2.91;;
61473;SDS011;53694;49.784;30.150;2023-08-01T02:29:45;6.76;;;3.00;;
61473;SDS011;53694;49.784;30.150;2023-08-01T02:30:46;7.10;;;2.82;;
61473;SDS011;53694;49.784;30.150;2023-08-01T02:31:48;5.91;;;2.73;;
61473;SDS011;53694;49.784;30.150;2023-08-01T02:32:49;5.42;;;2.64;;
61473;SDS011;53694;49.784;30.150;2023-08-01T02:33:51;5.37;;;2.77;;
61473;SDS011;53694;49.784;30.150;2023-08-01T02:34:52;6.35;;;2.89;;
61473;SDS011;53694;49.784;30.150;2023-08-01T02:35:54;4.96;;;2.89;;
61473;SDS011;53694;49.784;30.150;2023-08-01T02:36:55;6.69;;;3.23;;
61473;SDS011;53694;49.784;30.150;2023-08-01T02:37:57;8.24;;;3.20;;
61473;SDS011;53694;49.784;30.150;2023-08-01T02:38:58;8.41;;;3.49;;
61473;SDS011;53694;49.784;30.150;2023-08-01T02:40:01;7.93;;;3.63;;
61473;SDS011;53694;49.784;30.150;2023-08-01T02:41:05;6.96;;;3.42;;
61473;SDS011;53694;49.784;30.150;2023-08-01T02:42:06;10.36;;;3.92;;
61473;SDS011;53694;49.784;30.150;2023-08-01T02:43:08;6.73;;;3.16;;
61473;SDS011;53694;49.784;30.150;2023-08-01T02:44:09;5.75;;;2.73;;
61473;SDS011;53694;49.784;30.150;2023-08-01T02:45:11;5.36;;;2.94;;
61473;SDS011;53694;49.784;30.150;2023-08-01T02:46:13;5.43;;;2.91;;
61473;SDS011;53694;49.784;30.150;2023-08-01T02:47:14;7.79;;;3.17;;
61473;SDS011;53694;49.784;30.150;2023-08-01T02:48:16;4.74;;;2.55;;
61473;SDS011;53694;49.784;30.150;2023-08-01T02:49:17;5.06;;;2.73;;
61473;SDS011;53694;49.784;30.150;2023-08-01T02:50:19;3.87;;;2.10;;
61473;SDS011;53694;49.784;30.150;2023-08-01T02:51:21;4.71;;;2.05;;
61473;SDS011;53694;49.784;30.150;2023-08-01T02:52:22;3.61;;;1.92;;
61473;SDS011;53694;49.784;30.150;2023-08-01T02:53:24;4.63;;;2.31;;
61473;SDS011;53694;49.784;30.150;2023-08-01T02:54:25;4.54;;;2.41;;
61473;SDS011;53694;49.784;30.150;2023-08-01T02:55:27;4.59;;;2.50;;
61473;SDS011;53694;49.784;30.150;2023-08-01T02:56:29;4.51;;;2.59;;
61473;SDS011;53694;49.784;30.150;2023-08-01T02:57:30;7.84;;;2.84;;
61473;SDS011;53694;49.784;30.150;2023-08-01T02:58:32;5.65;;;2.79;;
61473;SDS011;53694;49.784;30.150;2023-08-01T02:59:33;4.61;;;2.39;;
61473;SDS011;53694;49.784;30.150;2023-08-01T03:00:37;4.69;;;2.74;;
61473;SDS011;53694;49.784;30.150;2023-08-01T03:01:39;3.70;;;2.51;;
61473;SDS011;53694;49.784;30.150;2023-08-01T03:02:40;4.05;;;2.52;;
61473;SDS011;53694;49.784;30.150;2023-08-01T03:03:41;3.78;;;1.93;;
61473;SDS011;53694;49.784;30.150;2023-08-01T03:04:43;4.02;;;1.96;;
61473;SDS011;53694;49.784;30.150;2023-08-01T03:05:44;3.10;;;1.96;;
61473;SDS011;53694;49.784;30.150;2023-08-01T03:06:46;3.65;;;2.19;;
61473;SDS011;53694;49.784;30.150;2023-08-01T03:07:47;4.06;;;2.57;;
61473;SDS011;53694;49.784;30.150;2023-08-01T03:08:49;5.81;;;2.96;;
61473;SDS011;53694;49.784;30.150;2023-08-01T03:09:50;4.19;;;2.15;;
61473;SDS011;53694;49.784;30.150;2023-08-01T03:10:53;4.87;;;2.19;;
61473;SDS011;53694;49.784;30.150;2023-08-01T03:11:55;3.57;;;2.30;;
61473;SDS011;53694;49.784;30.150;2023-08-01T03:12:57;4.27;;;2.55;;
61473;SDS011;53694;49.784;30.150;2023-08-01T03:13:59;6.81;;;3.17;;
61473;SDS011;53694;49.784;30.150;2023-08-01T03:15:00;7.14;;;3.21;;
61473;SDS011;53694;49.784;30.150;2023-08-01T03:16:02;11.55;;;3.03;;
61473;SDS011;53694;49.784;30.150;2023-08-01T03:17:04;7.74;;;3.26;;
61473;SDS011;53694;49.784;30.150;2023-08-01T03:18:05;9.57;;;3.63;;
61473;SDS011;53694;49.784;30.150;2023-08-01T03:19:07;4.83;;;3.09;;
61473;SDS011;53694;49.784;30.150;2023-08-01T03:20:09;5.15;;;2.67;;
61473;SDS011;53694;49.784;30.150;2023-08-01T03:21:11;5.81;;;2.49;;
61473;SDS011;53694;49.784;30.150;2023-08-01T03:22:13;3.86;;;2.56;;
61473;SDS011;53694;49.784;30.150;2023-08-01T03:23:14;5.99;;;3.65;;
61473;SDS011;53694;49.784;30.150;2023-08-01T03:24:16;4.03;;;2.29;;
61473;SDS011;53694;49.784;30.150;2023-08-01T03:25:17;7.34;;;5.58;;
61473;SDS011;53694;49.784;30.150;2023-08-01T03:26:19;5.01;;;2.13;;
61473;SDS011;53694;49.784;30.150;2023-08-01T03:27:21;5.80;;;2.46;;
61473;SDS011;53694;49.784;30.150;2023-08-01T03:28:22;6.44;;;2.19;;
61473;SDS011;53694;49.784;30.150;2023-08-01T03:29:24;3.55;;;2.11;;
61473;SDS011;53694;49.784;30.150;2023-08-01T03:30:26;4.59;;;2.41;;
61473;SDS011;53694;49.784;30.150;2023-08-01T03:31:28;5.23;;;2.17;;
61473;SDS011;53694;49.784;30.150;2023-08-01T03:32:30;4.11;;;2.08;;
61473;SDS011;53694;49.784;30.150;2023-08-01T03:33:32;3.51;;;2.31;;
61473;SDS011;53694;49.784;30.150;2023-08-01T03:34:34;4.79;;;2.29;;
61473;SDS011;53694;49.784;30.150;2023-08-01T03:35:36;4.29;;;2.29;;
61473;SDS011;53694;49.784;30.150;2023-08-01T03:36:37;4.44;;;2.40;;
61473;SDS011;53694;49.784;30.150;2023-08-01T03:37:39;4.07;;;2.04;;
61473;SDS011;53694;49.784;30.150;2023-08-01T03:38:41;5.07;;;2.59;;
61473;SDS011;53694;49.784;30.150;2023-08-01T03:39:43;4.13;;;2.28;;
61473;SDS011;53694;49.784;30.150;2023-08-01T03:40:44;5.23;;;2.18;;
61473;SDS011;53694;49.784;30.150;2023-08-01T03:41:46;3.78;;;2.35;;
61473;SDS011;53694;49.784;30.150;2023-08-01T03:42:48;5.66;;;2.41;;
61473;SDS011;53694;49.784;30.150;2023-08-01T03:43:49;3.92;;;2.16;;
61473;SDS011;53694;49.784;30.150;2023-08-01T03:44:51;5.71;;;2.43;;
61473;SDS011;53694;49.784;30.150;2023-08-01T03:45:52;3.30;;;2.05;;
61473;SDS011;53694;49.784;30.150;2023-08-01T03:46:55;3.94;;;2.03;;
61473;SDS011;53694;49.784;30.150;2023-08-01T03:47:56;3.49;;;1.91;;
61473;SDS011;53694;49.784;30.150;2023-08-01T03:48:58;3.36;;;1.63;;
61473;SDS011;53694;49.784;30.150;2023-08-01T03:49:59;3.22;;;1.81;;
61473;SDS011;53694;49.784;30.150;2023-08-01T03:51:01;9.84;;;1.85;;
61473;SDS011;53694;49.784;30.150;2023-08-01T03:52:03;3.56;;;1.71;;
61473;SDS011;53694;49.784;30.150;2023-08-01T03:53:06;4.15;;;1.91;;
61473;SDS011;53694;49.784;30.150;2023-08-01T03:54:07;3.29;;;1.86;;
61473;SDS011;53694;49.784;30.150;2023-08-01T03:55:09;2.93;;;1.73;;
61473;SDS011;53694;49.784;30.150;2023-08-01T03:56:11;3.20;;;1.79;;
61473;SDS011;53694;49.784;30.150;2023-08-01T03:57:13;3.28;;;1.86;;
61473;SDS011;53694;49.784;30.150;2023-08-01T03:58:14;2.66;;;1.66;;
61473;SDS011;53694;49.784;30.150;2023-08-01T03:59:17;3.03;;;1.79;;
61473;SDS011;53694;49.784;30.150;2023-08-01T04:00:19;3.92;;;1.86;;
61473;SDS011;53694;49.784;30.150;2023-08-01T04:01:21;4.09;;;2.06;;
61473;SDS011;53694;49.784;30.150;2023-08-01T04:02:22;3.91;;;2.12;;
61473;SDS011;53694;49.784;30.150;2023-08-01T04:03:23;2.96;;;1.71;;
61473;SDS011;53694;49.784;30.150;2023-08-01T04:04:25;4.13;;;1.83;;
61473;SDS011;53694;49.784;30.150;2023-08-01T04:05:27;2.90;;;1.81;;
61473;SDS011;53694;49.784;30.150;2023-08-01T04:06:29;3.44;;;1.97;;
61473;SDS011;53694;49.784;30.150;2023-08-01T04:07:31;4.22;;;1.71;;
61473;SDS011;53694;49.784;30.150;2023-08-01T04:08:32;3.76;;;2.07;;
61473;SDS011;53694;49.784;30.150;2023-08-01T04:09:34;4.38;;;2.31;;
61473;SDS011;53694;49.784;30.150;2023-08-01T04:10:35;2.98;;;1.86;;
61473;SDS011;53694;49.784;30.150;2023-08-01T04:11:37;3.07;;;2.00;;
61473;SDS011;53694;49.784;30.150;2023-08-01T04:12:38;3.55;;;2.01;;
61473;SDS011;53694;49.784;30.150;2023-08-01T04:13:40;3.15;;;2.04;;
61473;SDS011;53694;49.784;30.150;2023-08-01T04:14:41;7.25;;;2.68;;
61473;SDS011;53694;49.784;30.150;2023-08-01T04:15:43;5.46;;;2.42;;
61473;SDS011;53694;49.784;30.150;2023-08-01T04:16:44;4.28;;;2.26;;
61473;SDS011;53694;49.784;30.150;2023-08-01T04:17:46;3.09;;;1.73;;
61473;SDS011;53694;49.784;30.150;2023-08-01T04:18:48;4.21;;;2.30;;
61473;SDS011;53694;49.784;30.150;2023-08-01T04:19:49;4.31;;;2.63;;
61473;SDS011;53694;49.784;30.150;2023-08-01T04:20:51;5.53;;;2.43;;
61473;SDS011;53694;49.784;30.150;2023-08-01T04:21:52;5.06;;;2.43;;
61473;SDS011;53694;49.784;30.150;2023-08-01T04:22:53;4.90;;;2.61;;
61473;SDS011;53694;49.784;30.150;2023-08-01T04:23:55;5.21;;;2.71;;
61473;SDS011;53694;49.784;30.150;2023-08-01T04:24:56;6.55;;;2.96;;
61473;SDS011;53694;49.784;30.150;2023-08-01T04:25:58;7.15;;;3.64;;
61473;SDS011;53694;49.784;30.150;2023-08-01T04:26:59;5.55;;;3.33;;
61473;SDS011;53694;49.784;30.150;2023-08-01T04:28:01;5.92;;;3.07;;
61473;SDS011;53694;49.784;30.150;2023-08-01T04:29:02;11.80;;;3.31;;
61473;SDS011;53694;49.784;30.150;2023-08-01T04:30:04;5.31;;;2.91;;
61473;SDS011;53694;49.784;30.150;2023-08-01T04:31:07;5.91;;;3.08;;
61473;SDS011;53694;49.784;30.150;2023-08-01T04:32:08;7.47;;;3.91;;
61473;SDS011;53694;49.784;30.150;2023-08-01T04:33:10;5.57;;;3.57;;
61473;SDS011;53694;49.784;30.150;2023-08-01T04:34:11;10.55;;;6.71;;
61473;SDS011;53694;49.784;30.150;2023-08-01T04:35:13;10.65;;;5.81;;
61473;SDS011;53694;49.784;30.150;2023-08-01T04:36:15;6.06;;;3.54;;
61473;SDS011;53694;49.784;30.150;2023-08-01T04:37:16;6.53;;;3.64;;
61473;SDS011;53694;49.784;30.150;2023-08-01T04:38:17;6.01;;;3.79;;
61473;SDS011;53694;49.784;30.150;2023-08-01T04:39:19;7.16;;;3.81;;
61473;SDS011;53694;49.784;30.150;2023-08-01T04:40:20;6.99;;;4.01;;
61473;SDS011;53694;49.784;30.150;2023-08-01T04:41:22;8.51;;;3.80;;
61473;SDS011;53694;49.784;30.150;2023-08-01T04:42:23;6.19;;;3.91;;
61473;SDS011;53694;49.784;30.150;2023-08-01T04:43:25;6.06;;;3.70;;
61473;SDS011;53694;49.784;30.150;2023-08-01T04:44:26;9.57;;;4.90;;
61473;SDS011;53694;49.784;30.150;2023-08-01T04:45:28;6.58;;;3.35;;
61473;SDS011;53694;49.784;30.150;2023-08-01T04:46:30;6.88;;;3.51;;
61473;SDS011;53694;49.784;30.150;2023-08-01T04:47:31;7.84;;;3.55;;
61473;SDS011;53694;49.784;30.150;2023-08-01T04:48:33;6.75;;;3.61;;
61473;SDS011;53694;49.784;30.150;2023-08-01T04:49:34;6.26;;;3.65;;
61473;SDS011;53694;49.784;30.150;2023-08-01T04:50:36;7.25;;;3.50;;
61473;SDS011;53694;49.784;30.150;2023-08-01T04:51:37;8.14;;;4.18;;
61473;SDS011;53694;49.784;30.150;2023-08-01T04:52:39;8.41;;;3.91;;
61473;SDS011;53694;49.784;30.150;2023-08-01T04:53:40;7.58;;;3.99;;
61473;SDS011;53694;49.784;30.150;2023-08-01T04:54:42;6.86;;;3.77;;
61473;SDS011;53694;49.784;30.150;2023-08-01T04:55:43;5.07;;;3.27;;
61473;SDS011;53694;49.784;30.150;2023-08-01T04:56:45;5.18;;;3.15;;
61473;SDS011;53694;49.784;30.150;2023-08-01T04:57:46;9.23;;;3.81;;
61473;SDS011;53694;49.784;30.150;2023-08-01T04:58:48;8.67;;;3.41;;
61473;SDS011;53694;49.784;30.150;2023-08-01T04:59:49;6.60;;;3.37;;
61473;SDS011;53694;49.784;30.150;2023-08-01T05:00:51;7.44;;;3.28;;
61473;SDS011;53694;49.784;30.150;2023-08-01T05:01:53;6.94;;;3.51;;
61473;SDS011;53694;49.784;30.150;2023-08-01T05:02:54;4.65;;;3.19;;
61473;SDS011;53694;49.784;30.150;2023-08-01T05:03:56;4.84;;;3.00;;
61473;SDS011;53694;49.784;30.150;2023-08-01T05:04:57;6.08;;;3.19;;
61473;SDS011;53694;49.784;30.150;2023-08-01T05:05:59;6.46;;;3.23;;
61473;SDS011;53694;49.784;30.150;2023-08-01T05:07:01;6.01;;;3.48;;
61473;SDS011;53694;49.784;30.150;2023-08-01T05:08:02;4.15;;;2.79;;
61473;SDS011;53694;49.784;30.150;2023-08-01T05:09:04;5.33;;;2.91;;
61473;SDS011;53694;49.784;30.150;2023-08-01T05:10:06;6.11;;;3.11;;
61473;SDS011;53694;49.784;30.150;2023-08-01T05:11:09;6.47;;;3.46;;
61473;SDS011;53694;49.784;30.150;2023-08-01T05:12:10;4.71;;;3.36;;
61473;SDS011;53694;49.784;30.150;2023-08-01T05:13:12;5.57;;;3.41;;
61473;SDS011;53694;49.784;30.150;2023-08-01T05:14:14;5.97;;;3.72;;
61473;SDS011;53694;49.784;30.150;2023-08-01T05:15:15;5.34;;;3.09;;
61473;SDS011;53694;49.784;30.150;2023-08-01T05:16:17;16.23;;;3.15;;
61473;SDS011;53694;49.784;30.150;2023-08-01T05:17:19;4.30;;;3.07;;
61473;SDS011;53694;49.784;30.150;2023-08-01T05:18:20;5.19;;;3.43;;
61473;SDS011;53694;49.784;30.150;2023-08-01T05:19:22;4.21;;;2.82;;
61473;SDS011;53694;49.784;30.150;2023-08-01T05:20:23;4.24;;;2.67;;
61473;SDS011;53694;49.784;30.150;2023-08-01T05:21:25;4.66;;;3.05;;
61473;SDS011;53694;49.784;30.150;2023-08-01T05:22:26;5.89;;;3.20;;
61473;SDS011;53694;49.784;30.150;2023-08-01T05:23:28;4.34;;;2.84;;
61473;SDS011;53694;49.784;30.150;2023-08-01T05:24:29;6.66;;;2.86;;
61473;SDS011;53694;49.784;30.150;2023-08-01T05:25:31;5.12;;;2.97;;
61473;SDS011;53694;49.784;30.150;2023-08-01T05:26:32;6.36;;;3.43;;
61473;SDS011;53694;49.784;30.150;2023-08-01T05:27:34;6.61;;;2.96;;
61473;SDS011;53694;49.784;30.150;2023-08-01T05:28:36;4.64;;;3.35;;
61473;SDS011;53694;49.784;30.150;2023-08-01T05:29:37;4.01;;;2.74;;
61473;SDS011;53694;49.784;30.150;2023-08-01T05:30:39;4.83;;;2.90;;
61473;SDS011;53694;49.784;30.150;2023-08-01T05:31:41;3.89;;;2.66;;
61473;SDS011;53694;49.784;30.150;2023-08-01T05:32:43;4.69;;;3.17;;
61473;SDS011;53694;49.784;30.150;2023-08-01T05:33:44;4.84;;;3.48;;
61473;SDS011;53694;49.784;30.150;2023-08-01T05:34:46;6.03;;;3.18;;
61473;SDS011;53694;49.784;30.150;2023-08-01T05:35:48;5.70;;;3.60;;
61473;SDS011;53694;49.784;30.150;2023-08-01T05:36:50;5.59;;;3.33;;
61473;SDS011;53694;49.784;30.150;2023-08-01T05:37:51;5.31;;;3.56;;
61473;SDS011;53694;49.784;30.150;2023-08-01T05:38:53;5.13;;;3.52;;
61473;SDS011;53694;49.784;30.150;2023-08-01T05:39:54;4.72;;;3.39;;
61473;SDS011;53694;49.784;30.150;2023-08-01T05:40:56;4.81;;;3.11;;
61473;SDS011;53694;49.784;30.150;2023-08-01T05:41:57;4.67;;;3.09;;
61473;SDS011;53694;49.784;30.150;2023-08-01T05:42:59;4.41;;;2.79;;
61473;SDS011;53694;49.784;30.150;2023-08-01T05:44:00;4.70;;;2.64;;
61473;SDS011;53694;49.784;30.150;2023-08-01T05:45:02;4.39;;;2.74;;
61473;SDS011;53694;49.784;30.150;2023-08-01T05:46:04;5.21;;;3.12;;
61473;SDS011;53694;49.784;30.150;2023-08-01T05:47:06;5.15;;;2.86;;
61473;SDS011;53694;49.784;30.150;2023-08-01T05:48:07;4.36;;;2.79;;
61473;SDS011;53694;49.784;30.150;2023-08-01T05:49:09;5.61;;;3.05;;
61473;SDS011;53694;49.784;30.150;2023-08-01T05:50:11;5.91;;;3.51;;
61473;SDS011;53694;49.784;30.150;2023-08-01T05:51:13;5.05;;;2.86;;
61473;SDS011;53694;49.784;30.150;2023-08-01T05:52:14;4.66;;;3.00;;
61473;SDS011;53694;49.784;30.150;2023-08-01T05:53:16;4.85;;;2.79;;
61473;SDS011;53694;49.784;30.150;2023-08-01T05:54:17;4.76;;;3.61;;
61473;SDS011;53694;49.784;30.150;2023-08-01T05:55:18;5.00;;;3.24;;
61473;SDS011;53694;49.784;30.150;2023-08-01T05:56:20;7.84;;;3.31;;
61473;SDS011;53694;49.784;30.150;2023-08-01T05:57:22;5.73;;;3.48;;
61473;SDS011;53694;49.784;30.150;2023-08-01T05:58:23;6.18;;;3.98;;
61473;SDS011;53694;49.784;30.150;2023-08-01T05:59:25;5.41;;;4.05;;
61473;SDS011;53694;49.784;30.150;2023-08-01T06:00:27;6.60;;;3.94;;
61473;SDS011;53694;49.784;30.150;2023-08-01T06:01:28;5.79;;;4.37;;
61473;SDS011;53694;49.784;30.150;2023-08-01T06:02:30;6.34;;;4.44;;
61473;SDS011;53694;49.784;30.150;2023-08-01T06:03:31;6.61;;;4.41;;
61473;SDS011;53694;49.784;30.150;2023-08-01T06:04:33;8.46;;;4.56;;
61473;SDS011;53694;49.784;30.150;2023-08-01T06:05:35;6.51;;;4.51;;